Time;durP1;ratioP1;P1;durP2;ratioP2;P2;SDS_P1;SDS_P2;PMS_P1;PMS_P2;Temp;Humidity;BMP_temperature;BMP_pressure;BME280_temperature;BME280_humidity;BME280_pressure;Samples;Min_cycle;Max_cycle;Signal;HPM_P1;HPM_P2
2021/07/16 00:00:15;;;;;;;4.90;3.27;;;19.30;98.60;;;;;;5052915;28;20662;-51
2021/07/16 00:02:42;;;;;;;3.33;3.07;;;19.30;98.70;;;;;;5052424;28;20661;-50
2021/07/16 00:05:10;;;;;;;3.43;2.80;;;19.30;98.70;;;;;;5032799;28;20654;-52
2021/07/16 00:07:38;;;;;;;3.50;3.20;;;19.40;98.70;;;;;;5038482;28;20673;-51
2021/07/16 00:10:07;;;;;;;3.03;2.83;;;19.30;98.60;;;;;;5052438;28;20650;-51
2021/07/16 00:12:34;;;;;;;5.23;3.33;;;19.30;98.60;;;;;;5052184;28;20730;-51
2021/07/16 00:15:01;;;;;;;3.10;2.70;;;19.40;98.50;;;;;;5033347;28;20675;-53
2021/07/16 00:17:30;;;;;;;3.77;2.40;;;19.30;98.40;;;;;;5045708;28;20682;-51
2021/07/16 00:19:57;;;;;;;2.70;2.50;;;19.30;98.30;;;;;;5052527;28;20660;-50
2021/07/16 00:22:24;;;;;;;3.83;3.33;;;19.30;98.30;;;;;;5051087;28;20622;-51
2021/07/16 00:24:51;;;;;;;4.27;3.00;;;19.30;98.30;;;;;;5052142;28;20768;-52
2021/07/16 00:27:19;;;;;;;3.40;3.10;;;19.30;98.50;;;;;;5052359;28;20689;-50
2021/07/16 00:29:46;;;;;;;2.67;2.47;;;19.20;98.60;;;;;;5052340;28;20630;-52
2021/07/16 00:32:13;;;;;;;2.73;2.53;;;19.20;98.60;;;;;;5046848;28;20659;-51
2021/07/16 00:34:42;;;;;;;2.93;2.73;;;19.20;98.70;;;;;;5047759;28;20625;-51
2021/07/16 00:37:09;;;;;;;3.33;3.13;;;19.20;98.80;;;;;;5051942;28;20685;-50
2021/07/16 00:39:36;;;;;;;3.10;2.90;;;19.20;98.80;;;;;;5052183;28;20669;-51
2021/07/16 00:42:04;;;;;;;4.43;3.50;;;19.20;98.90;;;;;;5052180;28;20681;-53
2021/07/16 00:44:33;;;;;;;5.30;3.40;;;19.10;98.90;;;;;;5051884;28;20674;-53
2021/07/16 00:47:00;;;;;;;2.80;2.50;;;19.10;98.90;;;;;;5051946;28;20694;-51
2021/07/16 00:49:28;;;;;;;3.00;2.57;;;19.10;99.00;;;;;;5052178;28;21155;-50
2021/07/16 00:51:56;;;;;;;3.27;3.00;;;19.10;99.00;;;;;;5047714;28;20658;-51
2021/07/16 00:54:23;;;;;;;2.80;2.60;;;19.10;99.00;;;;;;5032047;28;20737;-52
2021/07/16 00:56:51;;;;;;;3.73;3.10;;;19.10;98.90;;;;;;5031728;28;20698;-51
2021/07/16 00:59:19;;;;;;;3.10;2.90;;;19.10;98.90;;;;;;5042287;28;20673;-51
2021/07/16 01:01:46;;;;;;;3.80;2.90;;;19.10;99.00;;;;;;5048468;28;21223;-52
2021/07/16 01:04:14;;;;;;;3.30;3.10;;;19.10;99.00;;;;;;5031936;28;20643;-52
2021/07/16 01:06:41;;;;;;;2.97;2.77;;;19.10;98.90;;;;;;5031677;28;20690;-51
2021/07/16 01:09:10;;;;;;;3.20;2.90;;;19.20;98.90;;;;;;5031625;28;21031;-52
2021/07/16 01:11:37;;;;;;;3.13;2.93;;;19.10;98.70;;;;;;5040116;28;20660;-51
2021/07/16 01:14:04;;;;;;;2.20;2.00;;;19.10;98.60;;;;;;5051121;28;20678;-52
2021/07/16 01:16:31;;;;;;;8.10;2.87;;;19.10;98.60;;;;;;5050756;28;20685;-51
2021/07/16 01:18:59;;;;;;;2.37;2.17;;;19.10;98.50;;;;;;5051301;28;20765;-53
2021/07/16 01:21:27;;;;;;;3.70;2.83;;;19.10;98.60;;;;;;5050490;28;21166;-52
2021/07/16 01:23:56;;;;;;;2.93;2.73;;;19.10;98.70;;;;;;5033122;28;20692;-52
2021/07/16 01:26:23;;;;;;;4.63;3.43;;;19.10;98.70;;;;;;5051200;28;20978;-51
2021/07/16 01:28:51;;;;;;;2.77;2.53;;;19.10;98.80;;;;;;5051305;28;20669;-52
2021/07/16 01:31:19;;;;;;;3.33;3.07;;;19.20;99.00;;;;;;5051111;28;20692;-52
2021/07/16 01:33:46;;;;;;;2.60;2.40;;;19.10;99.00;;;;;;5050879;28;20701;-52
2021/07/16 01:36:13;;;;;;;2.80;2.33;;;19.10;99.00;;;;;;5051412;28;20626;-52
2021/07/16 01:38:40;;;;;;;5.20;2.83;;;19.00;99.00;;;;;;5050925;28;20638;-52
2021/07/16 01:41:09;;;;;;;3.00;2.70;;;19.00;99.00;;;;;;5050664;28;20658;-52
2021/07/16 01:43:36;;;;;;;8.93;2.50;;;19.00;99.00;;;;;;5050415;28;20657;-52
2021/07/16 01:46:05;;;;;;;4.47;2.87;;;19.00;99.10;;;;;;5051289;28;20697;-52
2021/07/16 01:48:33;;;;;;;3.37;2.80;;;19.00;99.00;;;;;;5050813;28;20618;-52
2021/07/16 01:51:01;;;;;;;3.60;3.30;;;19.00;99.00;;;;;;5051351;28;20683;-52
2021/07/16 01:53:28;;;;;;;3.07;2.33;;;19.00;99.00;;;;;;5031388;28;20745;-52
2021/07/16 01:55:55;;;;;;;2.50;2.30;;;19.00;98.90;;;;;;5046145;28;20614;-52
2021/07/16 01:58:24;;;;;;;3.33;2.57;;;19.00;98.80;;;;;;5051944;28;20657;-53
2021/07/16 02:00:51;;;;;;;2.87;2.57;;;19.00;99.10;;;;;;5052193;28;20672;-53
2021/07/16 02:03:18;;;;;;;3.07;2.87;;;19.00;98.80;;;;;;5034100;28;21082;-52
2021/07/16 02:05:46;;;;;;;2.47;2.27;;;19.00;98.80;;;;;;5048009;28;20634;-53
2021/07/16 02:08:15;;;;;;;2.57;2.37;;;19.00;99.00;;;;;;5051652;28;20658;-53
2021/07/16 02:10:44;;;;;;;4.20;2.53;;;19.00;99.10;;;;;;5051099;28;20662;-53
2021/07/16 02:13:11;;;;;;;2.60;2.40;;;19.00;99.20;;;;;;5045790;28;20685;-53
2021/07/16 02:15:41;;;;;;;2.97;2.73;;;19.00;99.30;;;;;;5051130;28;20661;-53
2021/07/16 02:18:08;;;;;;;3.77;2.63;;;19.00;99.30;;;;;;5051029;28;20685;-53
2021/07/16 02:20:36;;;;;;;4.97;2.63;;;19.00;99.30;;;;;;5050932;28;20657;-52
2021/07/16 02:23:04;;;;;;;2.20;2.10;;;19.00;99.20;;;;;;5050991;28;20661;-53
2021/07/16 02:25:31;;;;;;;3.27;2.97;;;19.00;99.30;;;;;;5051362;28;20626;-53
2021/07/16 02:27:59;;;;;;;2.93;2.73;;;19.00;99.30;;;;;;5051706;28;21054;-52
2021/07/16 02:30:28;;;;;;;3.43;3.13;;;18.90;99.20;;;;;;5050491;28;20669;-52
2021/07/16 02:32:58;;;;;;;2.83;2.63;;;18.90;99.20;;;;;;5031310;28;21089;-53
2021/07/16 02:35:25;;;;;;;5.43;2.50;;;18.90;99.30;;;;;;5031065;28;20693;-48
2021/07/16 02:37:52;;;;;;;4.13;3.23;;;18.90;99.60;;;;;;5048859;28;20685;-53
2021/07/16 02:40:19;;;;;;;4.07;2.90;;;18.90;99.40;;;;;;5051057;28;20668;-51
2021/07/16 02:42:47;;;;;;;3.10;2.87;;;18.80;99.40;;;;;;5035321;28;21037;-51
2021/07/16 02:45:18;;;;;;;3.50;3.10;;;18.80;99.40;;;;;;5050562;28;20654;-51
2021/07/16 02:47:45;;;;;;;4.33;2.50;;;18.80;99.40;;;;;;5053883;28;20689;-50
2021/07/16 02:50:14;;;;;;;2.30;2.20;;;18.80;99.40;;;;;;5054141;28;20626;-51
2021/07/16 02:52:42;;;;;;;3.37;2.67;;;18.80;99.50;;;;;;5044348;28;21240;-50
2021/07/16 02:55:10;;;;;;;3.07;2.77;;;18.80;99.50;;;;;;5053821;28;20693;-49
2021/07/16 02:57:37;;;;;;;3.13;2.90;;;18.80;99.50;;;;;;5052586;28;20723;-50
2021/07/16 03:00:06;;;;;;;3.90;3.27;;;18.80;99.50;;;;;;5051942;28;20672;-50
2021/07/16 03:02:38;;;;;;;3.70;2.70;;;18.80;99.50;;;;;;5041084;28;20657;-48
2021/07/16 03:05:07;;;;;;;2.67;2.47;;;18.80;99.40;;;;;;5051419;28;20768;-49
2021/07/16 03:07:35;;;;;;;3.87;3.17;;;18.80;99.40;;;;;;5053669;28;20685;-49
2021/07/16 03:10:03;;;;;;;5.00;2.60;;;18.80;99.40;;;;;;5053793;28;20673;-51
2021/07/16 03:12:31;;;;;;;8.13;2.63;;;18.80;99.30;;;;;;5053023;28;20665;-50
2021/07/16 03:14:58;;;;;;;3.83;3.53;;;18.80;99.30;;;;;;5054041;28;21483;-49
2021/07/16 03:17:25;;;;;;;5.20;2.80;;;18.80;99.30;;;;;;5053432;28;21046;-51
2021/07/16 03:19:52;;;;;;;3.00;2.80;;;18.80;99.40;;;;;;5053326;28;20630;-51
2021/07/16 03:22:19;;;;;;;2.83;2.50;;;18.80;99.40;;;;;;5040652;28;20669;-51
2021/07/16 03:24:48;;;;;;;2.90;2.70;;;18.80;99.50;;;;;;5037781;28;20622;-51
2021/07/16 03:27:15;;;;;;;3.03;2.83;;;18.80;99.50;;;;;;5053286;28;20711;-50
2021/07/16 03:29:42;;;;;;;2.90;2.70;;;18.80;99.50;;;;;;5053642;28;20650;-50
2021/07/16 03:32:09;;;;;;;5.67;2.73;;;18.70;99.50;;;;;;5041970;28;20658;-49
2021/07/16 03:34:36;;;;;;;3.50;3.20;;;18.70;99.60;;;;;;5033398;28;21252;-51
2021/07/16 03:37:04;;;;;;;4.50;2.90;;;18.70;99.50;;;;;;5050858;28;21062;-52
2021/07/16 03:39:31;;;;;;;3.03;2.83;;;18.70;99.40;;;;;;5053360;28;21276;-53
2021/07/16 03:42:00;;;;;;;4.43;3.80;;;18.80;99.40;;;;;;5048589;28;20665;-51
2021/07/16 03:44:29;;;;;;;5.33;3.40;;;18.80;99.40;;;;;;5052378;28;20653;-51
2021/07/16 03:46:58;;;;;;;2.50;2.40;;;18.70;99.40;;;;;;5052889;28;20686;-52
2021/07/16 03:49:28;;;;;;;4.37;3.37;;;18.70;99.40;;;;;;5052861;28;20660;-53
2021/07/16 03:51:55;;;;;;;4.47;3.10;;;18.70;99.50;;;;;;5041970;28;20623;-53
2021/07/16 03:54:23;;;;;;;3.43;3.13;;;18.70;99.60;;;;;;5052797;28;20688;-51
2021/07/16 03:56:50;;;;;;;3.50;3.20;;;18.70;99.70;;;;;;5052699;28;20729;-53
2021/07/16 03:59:18;;;;;;;3.50;3.20;;;18.60;99.60;;;;;;5053514;28;20637;-53
2021/07/16 04:01:47;;;;;;;4.10;3.40;;;18.60;99.60;;;;;;5041693;28;20631;-53
2021/07/16 04:04:15;;;;;;;4.10;3.80;;;18.60;99.60;;;;;;5052222;28;21170;-53
2021/07/16 04:06:50;;;;;;;4.07;3.67;;;18.60;99.60;;;;;;5052272;28;20681;-53
2021/07/16 04:09:26;;;;;;;4.13;3.43;;;18.60;99.60;;;;;;5052831;28;20621;-53
2021/07/16 04:12:08;;;;;;;3.57;2.83;;;18.60;99.60;;;;;;5049236;28;20709;-50
2021/07/16 04:14:38;;;;;;;3.83;3.53;;;18.50;99.70;;;;;;5052189;28;20696;-51
2021/07/16 04:17:07;;;;;;;3.90;3.60;;;18.50;99.70;;;;;;5050588;28;20712;-53
2021/07/16 04:19:34;;;;;;;6.77;5.20;;;18.50;99.70;;;;;;5052025;28;21050;-52
2021/07/16 04:22:01;;;;;;;5.23;4.83;;;18.50;99.70;;;;;;5046748;28;20607;-54
2021/07/16 04:24:29;;;;;;;4.60;4.20;;;18.60;99.80;;;;;;5052976;28;20663;-53
2021/07/16 04:26:56;;;;;;;3.87;3.57;;;18.60;99.80;;;;;;5052408;28;20839;-54
2021/07/16 04:29:23;;;;;;;3.60;3.30;;;18.60;99.80;;;;;;5051777;28;20680;-51
2021/07/16 04:31:51;;;;;;;4.33;3.93;;;18.50;99.90;;;;;;5036584;28;20634;-51
2021/07/16 04:34:19;;;;;;;3.80;3.50;;;18.60;99.90;;;;;;5046087;28;20780;-53
2021/07/16 04:36:46;;;;;;;3.70;3.40;;;18.60;99.90;;;;;;5051749;28;20696;-53
2021/07/16 04:39:13;;;;;;;4.20;3.80;;;18.60;99.90;;;;;;5051224;28;20638;-54
2021/07/16 04:41:40;;;;;;;3.87;3.63;;;18.60;99.90;;;;;;5051211;28;20655;-52
2021/07/16 04:44:08;;;;;;;6.13;4.40;;;18.60;99.90;;;;;;5049873;28;20680;-52
2021/07/16 04:46:35;;;;;;;4.40;3.67;;;18.60;99.90;;;;;;5050952;28;21063;-51
2021/07/16 04:49:03;;;;;;;7.13;5.40;;;18.70;99.90;;;;;;5044708;28;21016;-52
2021/07/16 04:51:31;;;;;;;5.33;4.93;;;18.70;99.90;;;;;;5037188;28;20663;-51
2021/07/16 04:53:59;;;;;;;17.53;15.37;;;18.80;99.90;;;;;;5031603;28;20619;-52
2021/07/16 04:56:26;;;;;;;6.83;6.23;;;18.80;99.90;;;;;;5031497;28;20647;-52
2021/07/16 04:58:53;;;;;;;6.10;5.60;;;18.80;99.90;;;;;;5033443;28;20665;-52
2021/07/16 05:01:21;;;;;;;7.30;6.43;;;18.90;99.90;;;;;;5039300;28;20653;-52
2021/07/16 05:03:49;;;;;;;7.63;6.93;;;18.90;99.90;;;;;;5049539;28;20679;-52
2021/07/16 05:06:17;;;;;;;8.17;7.47;;;18.90;99.90;;;;;;5050142;28;21017;-52
2021/07/16 05:08:45;;;;;;;11.20;8.03;;;18.90;99.90;;;;;;5050572;28;21199;-51
2021/07/16 05:11:12;;;;;;;11.20;8.73;;;18.90;99.90;;;;;;5036600;28;20654;-52
2021/07/16 05:13:40;;;;;;;10.00;9.00;;;19.00;99.90;;;;;;5037113;28;20661;-52
2021/07/16 05:16:08;;;;;;;10.10;8.13;;;19.00;99.90;;;;;;5050174;28;20690;-52
2021/07/16 05:18:36;;;;;;;8.97;8.17;;;19.00;99.90;;;;;;5050284;28;20991;-51
2021/07/16 05:21:03;;;;;;;11.57;9.70;;;19.00;99.90;;;;;;5049398;28;20650;-51
2021/07/16 05:23:32;;;;;;;13.37;10.57;;;19.00;99.90;;;;;;5049381;28;20618;-49
2021/07/16 05:25:59;;;;;;;11.10;9.70;;;19.10;99.90;;;;;;5050136;28;20618;-51
2021/07/16 05:28:26;;;;;;;12.33;10.57;;;19.10;99.90;;;;;;5050493;28;20686;-52
2021/07/16 05:30:53;;;;;;;13.77;11.37;;;19.10;99.90;;;;;;5038596;28;20631;-50
2021/07/16 05:33:21;;;;;;;12.77;11.40;;;19.10;99.90;;;;;;5029505;28;21247;-50
2021/07/16 05:35:48;;;;;;;15.20;10.20;;;19.20;99.90;;;;;;5037861;28;20713;-51
2021/07/16 05:38:15;;;;;;;11.77;10.60;;;19.20;99.90;;;;;;5050002;28;20654;-53
2021/07/16 05:40:44;;;;;;;10.37;9.30;;;19.20;99.90;;;;;;5050577;28;20673;-53
2021/07/16 05:43:12;;;;;;;12.70;7.40;;;19.30;99.90;;;;;;5050131;28;20649;-54
2021/07/16 05:45:40;;;;;;;8.37;6.97;;;19.30;99.90;;;;;;5050638;28;20964;-53
2021/07/16 05:48:10;;;;;;;8.00;7.20;;;19.40;99.90;;;;;;5050658;28;21015;-52
2021/07/16 05:50:37;;;;;;;8.93;7.33;;;19.40;99.90;;;;;;5049493;28;20665;-51
2021/07/16 05:53:04;;;;;;;9.43;8.53;;;19.50;99.90;;;;;;5049537;28;20664;-51
2021/07/16 05:55:32;;;;;;;7.57;6.30;;;19.60;99.90;;;;;;5050497;28;20697;-51
2021/07/16 05:58:00;;;;;;;8.87;8.03;;;19.60;99.90;;;;;;5050832;28;21036;-51
2021/07/16 06:00:28;;;;;;;7.10;6.53;;;19.60;99.90;;;;;;5043161;28;21263;-51
2021/07/16 06:02:55;;;;;;;5.60;5.10;;;19.70;99.90;;;;;;5030774;28;21001;-51
2021/07/16 06:05:22;;;;;;;5.87;5.30;;;19.80;99.90;;;;;;5034853;28;20660;-52
2021/07/16 06:07:50;;;;;;;5.33;4.93;;;19.80;99.90;;;;;;5050919;28;21239;-52
2021/07/16 06:10:17;;;;;;;6.43;5.80;;;19.90;99.90;;;;;;5045590;28;20661;-51
2021/07/16 06:12:44;;;;;;;5.43;5.03;;;19.90;99.90;;;;;;5030539;28;20635;-51
2021/07/16 06:15:13;;;;;;;4.87;4.47;;;20.00;99.90;;;;;;5029898;28;20686;-50
2021/07/16 06:17:41;;;;;;;5.80;5.37;;;20.00;99.90;;;;;;5029259;28;21239;-50
2021/07/16 06:20:09;;;;;;;8.93;5.40;;;20.00;99.90;;;;;;5034110;28;20696;-50
2021/07/16 06:22:36;;;;;;;5.83;5.33;;;20.00;99.90;;;;;;5053820;28;20650;-50
2021/07/16 06:25:04;;;;;;;4.73;4.17;;;20.10;99.90;;;;;;5054115;28;20653;-50
2021/07/16 06:27:31;;;;;;;4.77;4.33;;;20.10;99.90;;;;;;5053959;28;21086;-50
2021/07/16 06:29:58;;;;;;;4.80;3.60;;;20.10;99.90;;;;;;5051267;28;20622;-51
2021/07/16 06:32:27;;;;;;;5.60;3.30;;;20.20;99.90;;;;;;5033990;28;21057;-52
2021/07/16 06:34:54;;;;;;;5.67;4.57;;;20.20;99.90;;;;;;5034860;28;20658;-51
2021/07/16 06:37:21;;;;;;;4.20;3.90;;;20.30;99.90;;;;;;5046558;28;20716;-51
2021/07/16 06:39:48;;;;;;;3.80;3.50;;;20.40;99.90;;;;;;5054361;28;20630;-51
2021/07/16 06:42:15;;;;;;;3.60;3.30;;;20.40;99.90;;;;;;5053488;28;20673;-52
2021/07/16 06:44:43;;;;;;;4.37;3.53;;;20.40;99.90;;;;;;5053880;28;20657;-50
2021/07/16 06:47:10;;;;;;;4.60;4.20;;;20.40;99.90;;;;;;5053538;28;20673;-50
2021/07/16 06:49:39;;;;;;;4.20;3.90;;;20.40;99.90;;;;;;5053337;28;20677;-50
2021/07/16 06:52:07;;;;;;;5.30;4.03;;;20.50;99.90;;;;;;5053301;28;20656;-50
2021/07/16 06:54:34;;;;;;;3.83;3.53;;;20.50;99.90;;;;;;5054102;28;20661;-51
2021/07/16 06:57:01;;;;;;;5.70;5.17;;;20.50;99.90;;;;;;5053513;28;20694;-50
2021/07/16 06:59:29;;;;;;;7.93;5.53;;;20.60;99.90;;;;;;5053910;28;20986;-50
2021/07/16 07:01:56;;;;;;;6.00;5.10;;;20.60;99.90;;;;;;5052985;28;21012;-48
2021/07/16 07:04:24;;;;;;;6.37;5.70;;;20.60;99.90;;;;;;5053396;28;21040;-50
2021/07/16 07:06:53;;;;;;;5.03;4.63;;;20.70;99.90;;;;;;5053120;28;20692;-48
2021/07/16 07:09:20;;;;;;;8.30;7.50;;;20.60;99.90;;;;;;5053308;28;20660;-52
2021/07/16 07:11:47;;;;;;;7.27;6.53;;;20.70;99.90;;;;;;5053511;28;21214;-49
2021/07/16 07:14:14;;;;;;;7.57;6.97;;;20.80;99.90;;;;;;5052852;28;20626;-49
2021/07/16 07:16:41;;;;;;;6.53;6.03;;;20.80;99.90;;;;;;5052596;28;20693;-50
2021/07/16 07:19:09;;;;;;;8.03;6.90;;;20.80;99.90;;;;;;5051039;28;20657;-50
2021/07/16 07:21:36;;;;;;;10.33;8.20;;;20.90;99.90;;;;;;5052663;28;20657;-51
2021/07/16 07:24:05;;;;;;;7.70;6.60;;;20.90;99.90;;;;;;5049387;28;21239;-50
2021/07/16 07:26:33;;;;;;;7.77;7.07;;;20.90;99.90;;;;;;5050094;28;20650;-50
2021/07/16 07:29:00;;;;;;;11.60;9.10;;;20.90;99.90;;;;;;5052046;28;21151;-50
2021/07/16 07:31:27;;;;;;;9.80;8.97;;;21.10;99.90;;;;;;5052275;28;20649;-52
2021/07/16 07:33:54;;;;;;;11.40;9.53;;;21.10;99.90;;;;;;5052079;28;20653;-49
2021/07/16 07:36:22;;;;;;;10.37;8.17;;;21.10;99.90;;;;;;5052675;28;21266;-50
2021/07/16 07:38:49;;;;;;;7.37;6.87;;;21.20;99.90;;;;;;5050664;28;20654;-51
2021/07/16 07:41:17;;;;;;;7.37;6.80;;;21.20;99.90;;;;;;5051280;28;21244;-49
2021/07/16 07:43:45;;;;;;;9.23;7.47;;;21.30;99.80;;;;;;5052614;28;20630;-49
2021/07/16 07:46:13;;;;;;;8.30;7.50;;;21.30;99.80;;;;;;5052146;28;21329;-50
2021/07/16 07:48:41;;;;;;;12.70;8.27;;;21.40;99.80;;;;;;5051897;28;20661;-49
2021/07/16 07:51:08;;;;;;;9.80;8.90;;;21.50;99.60;;;;;;5051566;28;20727;-51
2021/07/16 07:53:35;;;;;;;18.10;8.43;;;21.60;99.40;;;;;;5052246;28;20656;-50
2021/07/16 07:56:02;;;;;;;14.20;10.80;;;21.60;99.30;;;;;;5051682;28;20719;-50
2021/07/16 07:58:31;;;;;;;14.77;10.80;;;21.70;99.00;;;;;;5052317;28;21215;-49
2021/07/16 08:00:58;;;;;;;12.20;9.70;;;21.70;98.80;;;;;;5052045;28;20658;-48
2021/07/16 08:03:25;;;;;;;12.50;11.40;;;21.80;98.90;;;;;;5052350;28;20654;-51
2021/07/16 08:05:53;;;;;;;12.37;11.23;;;21.80;98.90;;;;;;5050483;28;20654;-51
2021/07/16 08:08:20;;;;;;;11.90;10.67;;;21.70;99.30;;;;;;5049866;28;20669;-52
2021/07/16 08:10:47;;;;;;;13.37;10.90;;;21.70;99.20;;;;;;5048774;28;20661;-53
2021/07/16 08:13:15;;;;;;;12.20;11.00;;;21.70;99.20;;;;;;5048123;28;20695;-51
2021/07/16 08:15:43;;;;;;;12.70;11.50;;;21.70;99.10;;;;;;5050842;28;21237;-52
2021/07/16 08:18:11;;;;;;;12.53;11.43;;;21.70;99.20;;;;;;5050247;28;20658;-52
2021/07/16 08:20:38;;;;;;;16.20;14.63;;;21.70;99.30;;;;;;5050430;28;20677;-52
2021/07/16 08:23:05;;;;;;;12.10;11.00;;;21.70;99.20;;;;;;5049980;28;20642;-52
2021/07/16 08:25:35;;;;;;;12.07;10.97;;;21.70;99.10;;;;;;5050287;28;20658;-51
2021/07/16 08:28:02;;;;;;;16.70;13.63;;;21.70;99.10;;;;;;5050192;28;20689;-51
2021/07/16 08:30:30;;;;;;;12.30;11.27;;;21.70;99.10;;;;;;5050739;28;20626;-52
2021/07/16 08:32:58;;;;;;;11.87;10.67;;;21.70;99.10;;;;;;5049701;28;20662;-52
2021/07/16 08:35:26;;;;;;;11.63;10.60;;;21.70;99.10;;;;;;5046086;28;21180;-51
2021/07/16 08:37:53;;;;;;;13.43;12.00;;;21.70;99.20;;;;;;5029821;28;20702;-51
2021/07/16 08:40:20;;;;;;;13.67;12.00;;;21.60;99.20;;;;;;5030374;28;20666;-52
2021/07/16 08:42:48;;;;;;;13.93;12.73;;;21.70;99.30;;;;;;5030023;28;20670;-52
2021/07/16 08:45:15;;;;;;;13.57;12.17;;;21.70;99.40;;;;;;5030400;28;20777;-50
2021/07/16 08:47:42;;;;;;;14.07;12.73;;;21.70;99.40;;;;;;5030651;28;21085;-51
2021/07/16 08:50:12;;;;;;;15.10;13.57;;;21.80;99.40;;;;;;5030679;28;20662;-52
2021/07/16 08:52:43;;;;;;;12.30;11.30;;;21.80;99.30;;;;;;5031136;28;21026;-51
2021/07/16 08:55:11;;;;;;;13.57;12.07;;;21.80;99.10;;;;;;5030184;28;21195;-52
2021/07/16 08:57:39;;;;;;;13.43;12.13;;;21.90;99.00;;;;;;5030791;28;20701;-52
2021/07/16 09:00:07;;;;;;;12.23;11.20;;;21.90;99.00;;;;;;5029781;28;20659;-51
2021/07/16 09:02:35;;;;;;;13.77;11.73;;;22.00;98.90;;;;;;5029825;28;20666;-51
2021/07/16 09:05:07;;;;;;;14.17;12.23;;;22.10;98.80;;;;;;5030920;28;20666;-52
2021/07/16 09:07:47;;;;;;;13.63;12.20;;;22.10;99.20;;;;;;5049162;28;20755;-52
2021/07/16 09:10:14;;;;;;;12.87;11.53;;;22.20;98.70;;;;;;5050641;28;20662;-52
2021/07/16 09:12:42;;;;;;;13.43;12.03;;;22.20;98.70;;;;;;5050403;28;20684;-52
2021/07/16 09:15:10;;;;;;;11.63;10.57;;;22.30;98.60;;;;;;5050095;28;20675;-52
2021/07/16 09:17:42;;;;;;;13.20;12.00;;;22.40;98.60;;;;;;5050760;28;21213;-52
2021/07/16 09:20:10;;;;;;;12.80;11.47;;;22.40;98.60;;;;;;5050521;28;20622;-52
2021/07/16 09:22:38;;;;;;;12.53;11.23;;;22.40;98.40;;;;;;5050152;28;21156;-51
2021/07/16 09:25:07;;;;;;;12.90;11.60;;;22.50;98.50;;;;;;5049245;28;21286;-52
2021/07/16 09:27:36;;;;;;;13.07;11.97;;;22.50;98.40;;;;;;5049919;28;20713;-50
2021/07/16 09:30:19;;;;;;;12.10;10.97;;;22.50;98.40;;;;;;5050531;28;20662;-51
2021/07/16 09:32:47;;;;;;;12.83;11.73;;;22.50;98.30;;;;;;5049847;28;20989;-51
2021/07/16 09:35:18;;;;;;;12.17;11.10;;;22.50;98.20;;;;;;5050500;28;20922;-51
2021/07/16 09:37:53;;;;;;;15.43;11.37;;;22.60;98.30;;;;;;5049984;28;20704;-52
2021/07/16 09:40:23;;;;;;;15.80;14.40;;;22.60;98.00;;;;;;5050393;28;20683;-51
2021/07/16 09:43:04;;;;;;;12.20;10.70;;;22.70;98.20;;;;;;5047828;28;21203;-51
2021/07/16 09:45:32;;;;;;;12.50;11.27;;;22.80;97.70;;;;;;5048940;28;20953;-51
2021/07/16 09:48:00;;;;;;;11.60;10.60;;;22.90;97.90;;;;;;5049858;28;20689;-52
2021/07/16 09:50:30;;;;;;;12.53;11.30;;;22.90;97.70;;;;;;5050297;28;20684;-52
2021/07/16 09:53:13;;;;;;;16.23;14.73;;;23.00;97.60;;;;;;5049185;28;20676;-51
2021/07/16 09:55:42;;;;;;;12.77;11.67;;;23.10;97.70;;;;;;5049945;28;21229;-52
2021/07/16 09:58:24;;;;;;;10.70;9.70;;;23.10;97.50;;;;;;5049848;28;20678;-50
2021/07/16 10:00:52;;;;;;;11.00;10.10;;;23.20;97.40;;;;;;5049718;28;20715;-50
2021/07/16 10:03:20;;;;;;;12.23;11.03;;;23.20;97.20;;;;;;5048086;28;21077;-49
2021/07/16 10:05:48;;;;;;;12.13;11.03;;;23.20;96.70;;;;;;5047756;28;20670;-50
2021/07/16 10:08:16;;;;;;;11.23;10.13;;;23.20;96.80;;;;;;5048901;28;20690;-51
2021/07/16 10:10:45;;;;;;;11.70;10.50;;;23.20;96.80;;;;;;5049976;28;21030;-52
2021/07/16 10:13:13;;;;;;;14.20;11.30;;;23.20;96.60;;;;;;5050588;28;20626;-51
2021/07/16 10:15:41;;;;;;;11.33;10.13;;;23.30;96.50;;;;;;5050042;28;20662;-51
2021/07/16 10:18:09;;;;;;;11.17;10.27;;;23.30;96.50;;;;;;5050011;28;20728;-52
2021/07/16 10:20:36;;;;;;;11.30;10.40;;;23.20;96.40;;;;;;5049360;28;20703;-51
2021/07/16 10:23:04;;;;;;;10.73;9.83;;;23.30;96.00;;;;;;5050024;28;20626;-51
2021/07/16 10:25:31;;;;;;;12.17;11.00;;;23.30;96.00;;;;;;5049107;28;21183;-50
2021/07/16 10:28:00;;;;;;;10.10;9.30;;;23.40;96.00;;;;;;5049844;28;20727;-50
2021/07/16 10:30:32;;;;;;;11.03;10.03;;;23.40;95.90;;;;;;5049845;28;20637;-50
2021/07/16 10:33:01;;;;;;;11.83;10.73;;;23.40;95.90;;;;;;5049751;28;20987;-51
2021/07/16 10:35:29;;;;;;;9.03;8.27;;;23.60;95.80;;;;;;5049321;28;21198;-51
2021/07/16 10:37:58;;;;;;;9.13;8.33;;;23.60;95.80;;;;;;5050034;28;20701;-51
2021/07/16 10:40:41;;;;;;;8.30;7.60;;;23.70;95.40;;;;;;5049629;28;20650;-50
2021/07/16 10:43:10;;;;;;;9.90;9.00;;;23.70;94.90;;;;;;5050065;28;21179;-51
2021/07/16 10:45:38;;;;;;;9.13;8.43;;;23.80;94.80;;;;;;5049776;28;21226;-51
2021/07/16 10:48:13;;;;;;;9.00;8.30;;;23.90;94.80;;;;;;5049638;28;20692;-51
2021/07/16 10:50:40;;;;;;;9.73;8.93;;;24.00;94.80;;;;;;5048127;28;21398;-51
2021/07/16 10:53:08;;;;;;;11.10;8.63;;;24.00;94.60;;;;;;5049500;28;21256;-51
2021/07/16 10:56:09;;;;;;;8.70;7.83;;;24.10;94.40;;;;;;5045598;28;20766;-51
2021/07/16 10:58:45;;;;;;;7.70;7.10;;;24.10;94.20;;;;;;4987748;28;20691;-53
2021/07/16 11:01:13;;;;;;;10.07;9.17;;;24.20;93.40;;;;;;4986333;28;20660;-52
2021/07/16 11:03:41;;;;;;;10.47;9.47;;;24.20;93.40;;;;;;5008725;28;21048;-52
2021/07/16 11:06:08;;;;;;;11.00;10.10;;;24.30;93.50;;;;;;5039511;28;20661;-53
2021/07/16 11:08:54;;;;;;;11.53;10.30;;;24.20;94.10;;;;;;5052656;28;20662;-52
2021/07/16 11:11:23;;;;;;;10.67;9.77;;;24.20;94.40;;;;;;5052748;28;20998;-52
2021/07/16 11:13:53;;;;;;;9.53;8.73;;;24.30;94.60;;;;;;5052628;28;20679;-53
2021/07/16 11:16:43;;;;;;;11.90;10.70;;;24.30;94.80;;;;;;5052704;28;20657;-53
2021/07/16 11:19:26;;;;;;;11.37;10.07;;;24.40;95.20;;;;;;5052659;28;20767;-52
2021/07/16 11:22:06;;;;;;;12.00;11.00;;;24.40;95.00;;;;;;5052671;28;20660;-52
2021/07/16 11:24:34;;;;;;;10.17;9.13;;;24.40;95.00;;;;;;5052033;28;20939;-50
2021/07/16 11:27:07;;;;;;;12.00;10.97;;;24.40;94.90;;;;;;5052916;28;20650;-49
2021/07/16 11:29:36;;;;;;;10.53;9.20;;;24.60;94.40;;;;;;5053797;28;20630;-50
2021/07/16 11:32:09;;;;;;;9.93;9.13;;;24.60;94.00;;;;;;5054536;28;21158;-51
2021/07/16 11:34:37;;;;;;;10.57;9.57;;;24.60;93.10;;;;;;5052575;28;20630;-50
2021/07/16 11:37:05;;;;;;;10.00;9.10;;;24.60;93.00;;;;;;5052677;28;20701;-50
2021/07/16 11:39:33;;;;;;;10.00;9.10;;;24.60;93.40;;;;;;5050660;28;20775;-50
2021/07/16 11:42:01;;;;;;;12.40;10.60;;;24.60;93.40;;;;;;5052359;28;20657;-51
2021/07/16 11:44:29;;;;;;;10.63;9.73;;;24.60;93.60;;;;;;5052628;28;20699;-51
2021/07/16 11:46:58;;;;;;;12.93;10.63;;;24.50;94.00;;;;;;5052356;28;20808;-53
2021/07/16 11:49:26;;;;;;;10.97;10.17;;;24.50;94.00;;;;;;5067067;28;20743;-53
2021/07/16 11:52:01;;;;;;;11.50;10.50;;;24.50;94.00;;;;;;5052546;28;21326;-52
2021/07/16 11:54:28;;;;;;;10.90;9.83;;;24.40;93.90;;;;;;5052420;28;20654;-54
2021/07/16 11:56:57;;;;;;;11.70;10.27;;;24.30;93.90;;;;;;5051978;28;21078;-55
2021/07/16 11:59:24;;;;;;;9.97;9.17;;;24.30;93.80;;;;;;5052189;28;20697;-53
2021/07/16 12:02:11;;;;;;;10.30;9.30;;;24.20;94.00;;;;;;5051904;28;20756;-54
2021/07/16 12:04:39;;;;;;;10.00;9.30;;;24.30;94.30;;;;;;5052107;28;20660;-53
2021/07/16 12:07:06;;;;;;;10.90;9.90;;;24.30;94.10;;;;;;5051426;28;20693;-53
2021/07/16 12:09:35;;;;;;;10.20;9.50;;;24.30;94.10;;;;;;5051834;28;20654;-54
2021/07/16 12:12:03;;;;;;;10.30;9.50;;;24.30;94.10;;;;;;5051332;28;20668;-52
2021/07/16 12:14:45;;;;;;;9.63;8.83;;;24.30;94.20;;;;;;5052258;28;21166;-53
2021/07/16 12:17:13;;;;;;;9.57;8.87;;;24.40;94.00;;;;;;5051943;28;21089;-53
2021/07/16 12:19:41;;;;;;;12.17;9.33;;;24.40;94.00;;;;;;5051984;28;20792;-53
2021/07/16 12:22:08;;;;;;;9.97;9.17;;;24.30;94.00;;;;;;5051147;28;20654;-53
2021/07/16 12:24:35;;;;;;;9.93;9.13;;;24.30;93.70;;;;;;5051966;28;21183;-51
2021/07/16 12:27:06;;;;;;;10.63;9.73;;;24.30;93.60;;;;;;5051396;28;20688;-52
2021/07/16 12:29:33;;;;;;;10.20;9.33;;;24.20;93.50;;;;;;5051861;28;20665;-52
2021/07/16 12:32:00;;;;;;;9.80;9.00;;;24.20;93.50;;;;;;5051240;28;20650;-52
2021/07/16 12:34:29;;;;;;;8.90;8.30;;;24.10;93.60;;;;;;5051718;28;21195;-52
2021/07/16 12:37:09;;;;;;;9.87;9.17;;;24.10;93.80;;;;;;5051311;28;20700;-53
2021/07/16 12:39:37;;;;;;;9.73;8.93;;;24.00;93.60;;;;;;5051839;28;21249;-52
2021/07/16 12:42:14;;;;;;;9.67;8.90;;;24.00;93.50;;;;;;5051539;28;20673;-52
2021/07/16 12:44:57;;;;;;;10.20;9.40;;;23.90;93.60;;;;;;5051175;28;20622;-53
2021/07/16 12:47:24;;;;;;;8.80;8.10;;;23.90;93.70;;;;;;5050831;28;20779;-51